createdAt,value
2019-04-26T00:02:52.276Z,15.55
2019-04-26T00:07:58.467Z,15.38
2019-04-26T00:13:18.645Z,15.27
2019-04-26T00:18:24.435Z,15.21
2019-04-26T00:23:30.909Z,15.18
2019-04-26T00:28:36.794Z,15.19
2019-04-26T00:33:42.232Z,15.22
2019-04-26T00:38:47.770Z,15.23
2019-04-26T00:43:53.229Z,15.26
2019-04-26T00:48:58.677Z,15.29
2019-04-26T00:54:04.066Z,15.35
2019-04-26T00:59:09.873Z,15.38
2019-04-26T01:04:16.047Z,15.39
2019-04-26T01:09:23.703Z,15.37
2019-04-26T01:14:29.246Z,15.32
2019-04-26T01:19:34.672Z,15.31
2019-04-26T01:24:40.104Z,15.32
2019-04-26T01:29:45.532Z,15.34
2019-04-26T01:34:51.040Z,15.31
2019-04-26T01:39:59.473Z,15.26
2019-04-26T01:45:16.551Z,15.24
2019-04-26T01:50:23.556Z,15.25
2019-04-26T01:55:29.220Z,15.23
2019-04-26T02:00:43.689Z,15.20
2019-04-26T02:05:49.151Z,15.24
2019-04-26T02:10:54.595Z,15.28
2019-04-26T02:16:00.062Z,15.33
2019-04-26T02:21:35.659Z,15.29
2019-04-26T02:26:43.077Z,15.25
2019-04-26T02:31:52.834Z,15.19
2019-04-26T02:37:01.581Z,15.14
2019-04-26T02:42:20.447Z,15.11
2019-04-26T02:47:46.593Z,15.10
2019-04-26T02:53:16.763Z,15.07
2019-04-26T02:58:22.516Z,15.08
2019-04-26T03:03:29.828Z,15.08
2019-04-26T03:08:36.021Z,15.05
2019-04-26T03:13:49.766Z,15.06
2019-04-26T03:19:10.916Z,15.02
2019-04-26T03:24:32.261Z,14.99
2019-04-26T03:30:23.264Z,14.95
2019-04-26T03:35:39.847Z,14.92
2019-04-26T03:40:58.950Z,14.90
2019-04-26T03:46:35.660Z,14.88
2019-04-26T03:52:13.278Z,14.86
2019-04-26T03:57:42.709Z,14.85
2019-04-26T04:03:22.287Z,14.84
2019-04-26T04:08:45.988Z,14.84
2019-04-26T04:14:03.452Z,14.85
2019-04-26T04:19:56.960Z,14.86
2019-04-26T04:25:04.611Z,14.87
2019-04-26T04:30:56.389Z,14.87
2019-04-26T04:36:09.954Z,14.88
2019-04-26T04:41:28.530Z,14.90
2019-04-26T04:47:45.162Z,14.91
2019-04-26T04:53:02.551Z,14.88
2019-04-26T04:58:13.150Z,14.89
2019-04-26T05:03:42.344Z,14.90
2019-04-26T05:09:00.881Z,14.89
2019-04-26T05:14:30.675Z,14.92
2019-04-26T05:20:44.450Z,14.91
2019-04-26T05:26:40.200Z,14.95
2019-04-26T05:32:25.010Z,15.01
2019-04-26T05:38:04.736Z,15.10
2019-04-26T05:43:41.019Z,15.21
2019-04-26T05:49:50.363Z,15.39
2019-04-26T05:55:47.817Z,15.60
2019-04-26T06:02:30.449Z,15.80
2019-04-26T06:07:56.350Z,15.99
2019-04-26T06:14:08.962Z,16.09
2019-04-26T06:19:24.215Z,16.10
2019-04-26T06:24:49.249Z,16.15
2019-04-26T06:30:19.755Z,16.22
2019-04-26T06:35:26.427Z,16.23
2019-04-26T06:41:24.763Z,16.18
2019-04-26T06:47:11.151Z,16.14
2019-04-26T06:52:19.824Z,16.13
2019-04-26T06:58:16.780Z,16.16
2019-04-26T07:04:19.905Z,16.20
2019-04-26T07:09:27.067Z,16.24
2019-04-26T07:15:28.716Z,16.22
2019-04-26T07:20:40.741Z,16.23
2019-04-26T07:26:45.152Z,16.25
2019-04-26T07:31:59.128Z,16.28
2019-04-26T07:38:04.807Z,16.32
2019-04-26T07:43:24.257Z,16.44
2019-04-26T07:49:25.872Z,16.66
2019-04-26T07:55:25.995Z,16.97
2019-04-26T08:00:44.975Z,17.47
2019-04-26T08:06:20.220Z,18.01
2019-04-26T08:11:34.471Z,18.63
2019-04-26T08:17:01.056Z,18.84
2019-04-26T08:22:17.873Z,18.94
2019-04-26T08:27:23.856Z,18.94
2019-04-26T08:32:33.394Z,18.84
2019-04-26T08:37:46.720Z,18.72
2019-04-26T08:43:02.665Z,18.57
2019-04-26T08:48:23.348Z,18.57
2019-04-26T08:53:28.094Z,18.56
2019-04-26T08:58:33.589Z,18.51
2019-04-26T09:04:02.038Z,18.63
2019-04-26T09:09:18.229Z,18.83
2019-04-26T09:14:23.793Z,18.97
2019-04-26T09:19:30.434Z,19.14
2019-04-26T09:24:47.160Z,19.30
2019-04-26T09:30:00.610Z,19.28
2019-04-26T09:35:06.756Z,19.45
2019-04-26T09:40:21.086Z,19.80
2019-04-26T09:45:48.142Z,20.12
2019-04-26T09:50:54.411Z,20.42
2019-04-26T09:55:59.889Z,20.46
2019-04-26T10:01:06.346Z,20.36
2019-04-26T10:06:12.356Z,20.37
2019-04-26T10:11:19.968Z,20.74
2019-04-26T10:16:36.909Z,21.13
2019-04-26T10:21:40.655Z,21.28
2019-04-26T10:26:46.161Z,21.40
2019-04-26T10:31:52.794Z,21.44
2019-04-26T10:37:01.723Z,21.56
2019-04-26T10:42:05.706Z,21.88
2019-04-26T10:47:11.256Z,22.35
2019-04-26T10:52:26.735Z,23.09
2019-04-26T10:57:36.778Z,23.83
2019-04-26T11:02:42.316Z,24.46
2019-04-26T11:07:47.849Z,24.73
2019-04-26T11:12:53.254Z,24.87
2019-04-26T11:17:58.700Z,25.02
2019-04-26T11:23:08.207Z,25.12
2019-04-26T11:28:13.100Z,25.06
2019-04-26T11:33:18.615Z,25.07
2019-04-26T11:38:26.961Z,24.96
2019-04-26T11:43:31.429Z,24.64
2019-04-26T11:48:36.862Z,24.56
2019-04-26T11:53:44.737Z,24.74
2019-04-26T11:58:52.558Z,24.84
2019-04-26T12:04:25.010Z,24.75
2019-04-26T12:09:42.497Z,24.56
2019-04-26T12:14:48.202Z,24.41
2019-04-26T12:19:53.660Z,24.42
2019-04-26T12:24:59.092Z,24.49
2019-04-26T12:30:04.670Z,24.65
2019-04-26T12:35:10.077Z,24.79
2019-04-26T12:40:15.993Z,24.63
2019-04-26T12:45:40.415Z,24.53
2019-04-26T12:50:45.908Z,24.55
2019-04-26T12:55:53.232Z,24.59
2019-04-26T13:01:00.144Z,24.51
2019-04-26T13:06:05.783Z,24.44
2019-04-26T13:11:30.109Z,24.60
2019-04-26T13:16:52.782Z,24.87
2019-04-26T13:21:58.510Z,25.04
2019-04-26T13:27:06.214Z,24.98
2019-04-26T13:32:11.670Z,25.09
2019-04-26T13:37:17.966Z,25.15
2019-04-26T13:42:23.490Z,25.04
2019-04-26T13:47:46.823Z,25.06
2019-04-26T13:52:52.363Z,25.05
2019-04-26T13:57:57.885Z,24.99
2019-04-26T14:03:03.295Z,24.93
2019-04-26T14:08:09.162Z,24.93
2019-04-26T14:13:14.758Z,24.78
2019-04-26T14:18:20.237Z,24.51
2019-04-26T14:23:45.245Z,24.17
2019-04-26T14:28:49.868Z,23.85
2019-04-26T14:33:55.301Z,23.63
2019-04-26T14:39:06.000Z,23.65
2019-04-26T14:44:15.292Z,23.84
2019-04-26T14:49:19.234Z,23.79
2019-04-26T14:54:23.414Z,23.69
2019-04-26T14:59:47.089Z,23.56
2019-04-26T15:04:58.089Z,23.41
2019-04-26T15:10:06.851Z,23.55
2019-04-26T15:15:11.250Z,23.70
2019-04-26T15:20:20.761Z,23.60
2019-04-26T15:25:23.883Z,23.41
2019-04-26T15:30:29.337Z,23.22
2019-04-26T15:35:35.893Z,23.06
2019-04-26T15:41:05.589Z,22.75
2019-04-26T15:46:27.110Z,22.30
2019-04-26T15:51:33.734Z,21.92
2019-04-26T15:56:39.459Z,21.84
2019-04-26T16:01:47.673Z,22.04
2019-04-26T16:06:52.308Z,22.21
2019-04-26T16:11:57.726Z,22.30
2019-04-26T16:17:06.514Z,22.31
2019-04-26T16:22:10.474Z,22.25
2019-04-26T16:27:16.050Z,22.19
2019-04-26T16:32:34.496Z,22.10
2019-04-26T16:37:40.144Z,21.97
2019-04-26T16:42:49.739Z,21.81
2019-04-26T16:47:53.198Z,21.68
2019-04-26T16:52:58.739Z,21.57
2019-04-26T16:58:04.553Z,21.41
2019-04-26T17:03:10.207Z,21.20
2019-04-26T17:08:19.112Z,20.96
2019-04-26T17:13:24.011Z,20.73
2019-04-26T17:18:30.303Z,20.52
2019-04-26T17:24:04.836Z,20.29
2019-04-26T17:29:08.006Z,20.06
2019-04-26T17:34:13.574Z,19.87
2019-04-26T17:39:19.092Z,19.72
2019-04-26T17:44:26.613Z,19.66
2019-04-26T17:49:34.523Z,19.72
2019-04-26T17:54:48.902Z,19.85
2019-04-26T17:59:48.888Z,20.04
2019-04-26T18:05:00.421Z,20.21
2019-04-26T18:10:04.365Z,20.30
2019-04-26T18:15:10.349Z,20.27
2019-04-26T18:20:27.341Z,20.15
2019-04-26T18:25:32.758Z,19.88
2019-04-26T18:30:40.335Z,19.56
2019-04-26T18:35:49.220Z,19.21
2019-04-26T18:41:01.226Z,18.85
2019-04-26T18:46:06.464Z,18.46
2019-04-26T18:51:11.183Z,18.11
2019-04-26T18:56:17.730Z,17.77
2019-04-26T19:01:23.159Z,17.49
2019-04-26T19:06:31.813Z,17.22
2019-04-26T19:11:36.168Z,16.97
2019-04-26T19:16:50.227Z,16.77
2019-04-26T19:22:01.504Z,16.55
2019-04-26T19:27:07.134Z,16.36
2019-04-26T19:32:12.662Z,16.20
2019-04-26T19:37:18.147Z,16.09
2019-04-26T19:42:27.105Z,15.96
2019-04-26T19:47:44.013Z,15.84
2019-04-26T19:52:59.493Z,15.71
2019-04-26T19:58:16.680Z,15.61
2019-04-26T20:03:18.148Z,15.49
2019-04-26T20:08:23.798Z,15.37
2019-04-26T20:13:29.284Z,15.28
2019-04-26T20:18:38.970Z,15.20
2019-04-26T20:23:43.792Z,15.12
2019-04-26T20:28:49.349Z,15.01
2019-04-26T20:33:54.860Z,14.90
2019-04-26T20:39:01.760Z,14.79
2019-04-26T20:44:09.938Z,14.69
2019-04-26T20:49:14.608Z,14.62
2019-04-26T20:54:20.148Z,14.54
2019-04-26T20:59:25.665Z,14.46
2019-04-26T21:04:38.097Z,14.38
2019-04-26T21:09:40.891Z,14.30
2019-04-26T21:14:45.867Z,14.22
2019-04-26T21:19:54.905Z,14.14
2019-04-26T21:25:04.626Z,14.05
2019-04-26T21:30:24.845Z,13.98
2019-04-26T21:35:49.190Z,13.93
2019-04-26T21:41:04.367Z,13.98
2019-04-26T21:46:08.427Z,14.04
2019-04-26T21:51:16.127Z,14.08
2019-04-26T21:56:23.331Z,14.07
2019-04-26T22:01:28.984Z,14.07
2019-04-26T22:06:34.501Z,14.09
2019-04-26T22:11:40.364Z,14.22
2019-04-26T22:17:06.331Z,14.34
2019-04-26T22:22:29.188Z,14.39
2019-04-26T22:27:34.689Z,14.35
2019-04-26T22:32:40.285Z,14.33
2019-04-26T22:37:48.103Z,14.37
2019-04-26T22:42:57.967Z,14.37
2019-04-26T22:48:23.880Z,14.33
2019-04-26T22:53:29.420Z,14.28
2019-04-26T22:58:35.038Z,14.31
2019-04-26T23:03:41.149Z,14.38
2019-04-26T23:08:47.907Z,14.43
2019-04-26T23:14:11.523Z,14.51
2019-04-26T23:19:33.506Z,14.58
2019-04-26T23:24:38.955Z,14.57
2019-04-26T23:29:45.913Z,14.54
2019-04-26T23:34:53.136Z,14.45
2019-04-26T23:39:58.947Z,14.34
2019-04-26T23:45:04.697Z,14.17
2019-04-26T23:50:10.206Z,13.98
2019-04-26T23:55:15.728Z,13.81
